Time;durP1;ratioP1;P1;durP2;ratioP2;P2;SDS_P1;SDS_P2;PMS_P1;PMS_P2;Temp;Humidity;BMP_temperature;BMP_pressure;BME280_temperature;BME280_humidity;BME280_pressure;Samples;Min_cycle;Max_cycle;Signal;HPM_P1;HPM_P2
2023/10/23 00:00:32;;;;;;;8.57;2.70;;;;;;;17.65;94.63;95961.84;4996280;28;20037;-83
2023/10/23 00:02:57;;;;;;;7.43;2.43;;;;;;;17.61;95.88;95962.50;4992173;28;20061;-83
2023/10/23 00:05:23;;;;;;;8.77;2.30;;;;;;;17.46;98.39;95959.25;5018993;28;20538;-83
2023/10/23 00:07:49;;;;;;;4.33;1.60;;;;;;;17.24;99.13;95964.84;5007918;28;20035;-83
2023/10/23 00:10:15;;;;;;;8.93;2.43;;;;;;;17.36;97.89;95968.47;4989567;28;20029;-83
2023/10/23 00:12:40;;;;;;;6.20;1.87;;;;;;;17.09;97.86;95965.06;5002597;28;20052;-83
2023/10/23 00:15:07;;;;;;;4.47;1.90;;;;;;;17.14;98.82;95964.44;5014719;28;20063;-83
2023/10/23 00:17:32;;;;;;;9.80;3.00;;;;;;;17.40;98.32;95968.88;5003821;28;20287;-83
2023/10/23 00:20:00;;;;;;;4.83;1.93;;;;;;;17.28;96.14;95965.25;5004813;28;20036;-83
2023/10/23 00:22:26;;;;;;;9.80;2.37;;;;;;;17.47;94.29;95963.53;5009941;28;20026;-84
2023/10/23 00:24:51;;;;;;;10.07;3.97;;;;;;;17.47;93.14;95969.69;5006451;28;20033;-83
2023/10/23 00:27:17;;;;;;;12.10;4.50;;;;;;;17.23;94.30;95968.50;5000149;28;20037;-83
2023/10/23 00:29:42;;;;;;;8.70;4.17;;;;;;;17.16;96.53;95971.16;5003468;28;20033;-83
2023/10/23 00:32:08;;;;;;;8.40;3.53;;;;;;;17.42;93.22;95962.34;5025822;28;20475;-84
2023/10/23 00:34:34;;;;;;;8.17;3.23;;;;;;;17.35;96.14;95969.50;5018073;28;20040;-83
2023/10/23 00:36:59;;;;;;;7.10;3.17;;;;;;;16.96;96.96;95968.53;4996306;28;20022;-82
2023/10/23 00:39:25;;;;;;;7.93;2.20;;;;;;;16.79;99.24;95977.13;5010847;28;20025;-83
2023/10/23 00:41:50;;;;;;;9.23;2.40;;;;;;;16.69;100.00;95978.31;4994287;28;20029;-83
2023/10/23 00:44:16;;;;;;;7.53;2.00;;;;;;;16.50;100.00;95982.59;5001614;28;20033;-83
2023/10/23 00:46:42;;;;;;;6.03;2.50;;;;;;;16.41;100.00;95980.34;4997023;28;20041;-82
2023/10/23 00:49:09;;;;;;;5.63;2.00;;;;;;;16.11;100.00;95985.97;5008000;28;20113;-83
2023/10/23 00:51:35;;;;;;;7.80;2.03;;;;;;;15.77;100.00;95974.44;4999482;28;20129;-83
2023/10/23 00:54:02;;;;;;;5.30;1.80;;;;;;;15.84;100.00;95976.31;5006368;28;20113;-83
2023/10/23 00:56:29;;;;;;;6.07;1.57;;;;;;;15.90;100.00;95978.19;5000937;28;20688;-83
2023/10/23 00:58:56;;;;;;;5.90;1.87;;;;;;;16.12;100.00;95973.53;5001209;28;20042;-83
2023/10/23 01:01:22;;;;;;;7.13;2.20;;;;;;;15.92;100.00;95971.63;5007679;28;20052;-83
2023/10/23 01:03:48;;;;;;;6.80;1.90;;;;;;;15.85;100.00;95975.28;5015973;28;20064;-83
2023/10/23 01:06:13;;;;;;;5.37;1.70;;;;;;;16.34;100.00;95979.50;5032637;28;20061;-82
2023/10/23 01:08:39;;;;;;;5.80;1.93;;;;;;;16.56;100.00;95975.66;4995457;28;20029;-83
2023/10/23 01:11:05;;;;;;;7.07;2.50;;;;;;;16.57;98.74;95974.66;4989481;28;20126;-83
2023/10/23 01:13:41;;;;;;;9.60;2.50;;;;;;;16.53;98.95;95969.94;4999566;28;20022;-83
2023/10/23 01:16:07;;;;;;;9.17;3.67;;;;;;;16.62;99.94;95974.03;4997071;28;20044;-83
2023/10/23 01:18:33;;;;;;;5.90;2.47;;;;;;;16.09;100.00;95961.47;5007578;28;20033;-83
2023/10/23 01:20:58;;;;;;;8.73;2.23;;;;;;;16.05;100.00;95957.59;4998906;28;20624;-83
2023/10/23 01:23:26;;;;;;;8.27;2.80;;;;;;;16.25;100.00;95965.59;5007843;28;20136;-83
2023/10/23 01:25:52;;;;;;;6.47;2.00;;;;;;;16.43;100.00;95965.00;5007714;28;20092;-83
2023/10/23 01:28:19;;;;;;;7.00;2.47;;;;;;;16.44;100.00;95974.63;5003550;28;20452;-83
2023/10/23 01:30:45;;;;;;;4.60;1.87;;;;;;;16.29;100.00;95971.31;5010319;28;20025;-83
2023/10/23 01:33:10;;;;;;;6.00;1.83;;;;;;;16.43;100.00;95971.16;5007920;28;20022;-83
2023/10/23 01:35:36;;;;;;;6.50;2.17;;;;;;;16.56;100.00;95967.69;5010201;28;20032;-83
2023/10/23 01:38:02;;;;;;;6.87;2.70;;;;;;;16.45;100.00;95960.34;5024904;28;20026;-83
2023/10/23 01:40:27;;;;;;;6.73;2.00;;;;;;;16.62;98.16;95960.75;5004933;28;20407;-83
2023/10/23 01:42:53;;;;;;;7.77;3.33;;;;;;;16.24;100.00;95954.19;5020741;28;20056;-83
2023/10/23 01:45:19;;;;;;;4.77;2.17;;;;;;;16.39;100.00;95956.63;5002959;28;20045;-83
2023/10/23 01:47:44;;;;;;;11.67;2.80;;;;;;;16.33;100.00;95956.63;5003143;28;20036;-82
2023/10/23 01:50:10;;;;;;;8.70;2.50;;;;;;;16.05;100.00;95952.28;4994950;28;20089;-83
2023/10/23 01:52:37;;;;;;;6.13;2.20;;;;;;;15.79;100.00;95960.97;5009156;28;20038;-83
2023/10/23 01:55:03;;;;;;;7.43;2.80;;;;;;;15.74;100.00;95963.41;4995407;28;20022;-83
2023/10/23 01:57:29;;;;;;;9.27;3.20;;;;;;;15.50;100.00;95962.88;5011612;28;20403;-83
2023/10/23 01:59:55;;;;;;;5.87;1.87;;;;;;;15.78;100.00;95962.00;5011966;28;20021;-83
2023/10/23 02:02:37;;;;;;;10.03;2.33;;;;;;;15.47;100.00;95965.91;5015631;28;20049;-83
2023/10/23 02:05:03;;;;;;;4.93;1.47;;;;;;;15.25;100.00;95975.78;5020854;28;20072;-83
2023/10/23 02:07:29;;;;;;;8.07;1.57;;;;;;;15.37;100.00;95967.28;4999004;28;20491;-83
2023/10/23 02:09:58;;;;;;;5.47;1.67;;;;;;;15.77;100.00;95965.69;5016872;28;20029;-83
2023/10/23 02:12:25;;;;;;;9.43;2.10;;;;;;;16.07;100.00;95968.84;5017818;28;20497;-83
2023/10/23 02:14:52;;;;;;;4.33;1.40;;;;;;;16.44;100.00;95970.13;5003399;28;20115;-83
2023/10/23 02:17:21;;;;;;;8.20;1.90;;;;;;;16.07;100.00;95963.53;5013289;28;20033;-83
2023/10/23 02:20:09;;;;;;;6.13;1.70;;;;;;;16.00;100.00;95966.16;4999505;28;20034;-83
2023/10/23 02:22:35;;;;;;;3.20;0.87;;;;;;;15.87;100.00;95965.31;5012309;28;20080;-83
2023/10/23 02:25:01;;;;;;;5.23;1.37;;;;;;;15.85;100.00;95960.19;4997276;28;20033;-83
2023/10/23 02:27:26;;;;;;;10.47;1.57;;;;;;;15.87;100.00;95960.00;4995081;28;20025;-83
2023/10/23 02:29:53;;;;;;;10.43;1.80;;;;;;;15.72;100.00;95968.91;5020359;28;20025;-83
2023/10/23 02:32:18;;;;;;;7.40;1.70;;;;;;;15.47;100.00;95959.81;4993316;28;20031;-83
2023/10/23 02:34:44;;;;;;;2.53;1.20;;;;;;;15.62;100.00;95964.97;5010590;28;20057;-83
2023/10/23 02:37:09;;;;;;;4.20;1.33;;;;;;;15.78;100.00;95960.16;5006840;28;20044;-82
2023/10/23 02:39:36;;;;;;;6.63;1.43;;;;;;;16.01;100.00;95954.53;4996957;28;20033;-83
2023/10/23 02:42:02;;;;;;;6.03;1.43;;;;;;;15.98;100.00;95962.88;4993460;28;20473;-83
2023/10/23 02:44:28;;;;;;;6.97;1.50;;;;;;;15.96;100.00;95958.78;4995333;28;20083;-83
2023/10/23 02:46:54;;;;;;;4.97;1.67;;;;;;;15.91;100.00;95969.19;5004295;28;20080;-83
2023/10/23 02:49:21;;;;;;;4.63;1.57;;;;;;;16.14;100.00;95969.66;4990520;28;20038;-83
2023/10/23 02:51:48;;;;;;;3.20;1.13;;;;;;;16.12;98.69;95966.38;5014112;28;20030;-83
2023/10/23 02:54:14;;;;;;;3.47;1.57;;;;;;;15.97;100.00;95963.91;4989998;28;20038;-83
2023/10/23 02:56:39;;;;;;;7.27;2.37;;;;;;;15.85;100.00;95970.78;5012390;28;20112;-82
2023/10/23 02:59:05;;;;;;;9.53;3.20;;;;;;;15.68;100.00;95965.03;4996307;28;20033;-83
2023/10/23 03:01:30;;;;;;;7.70;4.87;;;;;;;15.68;100.00;95964.22;5006079;28;20033;-83
2023/10/23 03:03:56;;;;;;;9.77;6.07;;;;;;;15.84;100.00;95971.00;4998257;28;20030;-83
2023/10/23 03:06:23;;;;;;;8.97;6.07;;;;;;;15.41;100.00;95972.00;5016828;28;20025;-82
2023/10/23 03:08:49;;;;;;;8.53;5.20;;;;;;;15.35;100.00;95979.91;5018903;28;20443;-82
2023/10/23 03:11:14;;;;;;;8.60;5.60;;;;;;;15.21;100.00;95979.00;5027522;28;20103;-83
2023/10/23 03:13:40;;;;;;;9.37;5.00;;;;;;;15.22;100.00;95980.63;5004808;28;20071;-84
2023/10/23 03:16:07;;;;;;;9.07;5.23;;;;;;;15.33;100.00;95983.56;5004220;28;20029;-82
2023/10/23 03:18:33;;;;;;;9.03;4.17;;;;;;;15.45;100.00;95983.03;4994796;28;20411;-83
2023/10/23 03:21:00;;;;;;;10.67;3.70;;;;;;;15.08;100.00;95980.56;4993315;28;20427;-83
2023/10/23 03:23:28;;;;;;;10.73;3.80;;;;;;;15.27;100.00;95984.34;5010704;28;20041;-83
2023/10/23 03:25:53;;;;;;;7.17;3.90;;;;;;;15.16;100.00;95982.25;4991770;28;20435;-83
2023/10/23 03:28:22;;;;;;;7.60;3.13;;;;;;;14.89;100.00;95969.81;4989995;28;20033;-83
2023/10/23 03:30:49;;;;;;;8.50;3.30;;;;;;;15.09;100.00;95976.91;4991770;28;20033;-82
2023/10/23 03:33:15;;;;;;;5.57;2.73;;;;;;;14.90;100.00;95982.06;4994855;28;20468;-82
2023/10/23 03:35:44;;;;;;;6.83;3.00;;;;;;;14.84;100.00;95981.00;5013133;28;20036;-82
2023/10/23 03:38:12;;;;;;;7.27;3.10;;;;;;;14.83;100.00;95984.66;5002831;28;20032;-83
2023/10/23 03:40:37;;;;;;;7.73;3.30;;;;;;;14.64;100.00;95983.47;5000597;28;20040;-83
2023/10/23 03:43:03;;;;;;;6.37;3.13;;;;;;;14.60;100.00;95987.53;5015083;28;20025;-83
2023/10/23 03:45:28;;;;;;;6.50;2.60;;;;;;;14.70;100.00;95987.19;4994863;28;20029;-82
2023/10/23 03:47:54;;;;;;;11.43;2.50;;;;;;;14.51;100.00;95984.16;5013482;28;20029;-83
2023/10/23 03:50:19;;;;;;;8.37;2.80;;;;;;;14.50;100.00;95979.91;4994934;28;20029;-82
2023/10/23 03:52:45;;;;;;;7.07;2.40;;;;;;;14.21;100.00;95983.44;4990632;28;20060;-83
2023/10/23 03:55:10;;;;;;;8.23;2.57;;;;;;;14.12;100.00;95981.94;5014251;28;20075;-83
2023/10/23 03:57:36;;;;;;;11.07;2.70;;;;;;;14.01;100.00;95980.59;4995025;28;20095;-83
2023/10/23 04:00:02;;;;;;;6.50;2.27;;;;;;;14.49;100.00;95969.50;5007800;28;20026;-83
2023/10/23 04:02:37;;;;;;;8.23;3.20;;;;;;;14.28;100.00;95976.38;5005041;28;20037;-83
2023/10/23 04:05:03;;;;;;;6.70;2.33;;;;;;;14.38;100.00;95973.44;5006819;28;20026;-82
2023/10/23 04:07:29;;;;;;;8.30;2.73;;;;;;;13.96;100.00;95976.88;5022277;28;20025;-82
2023/10/23 04:09:56;;;;;;;6.00;3.33;;;;;;;13.93;100.00;95969.31;5018994;28;20491;-82
2023/10/23 04:12:22;;;;;;;7.60;3.00;;;;;;;14.44;100.00;95961.28;5005302;28;20131;-83
2023/10/23 04:14:48;;;;;;;10.23;3.67;;;;;;;14.87;100.00;95962.09;4997659;28;20519;-83
2023/10/23 04:17:13;;;;;;;7.47;2.73;;;;;;;14.84;100.00;95963.28;4989669;28;20044;-82
2023/10/23 04:19:39;;;;;;;6.10;2.43;;;;;;;14.73;100.00;95961.16;4992941;28;20026;-82
2023/10/23 04:22:05;;;;;;;6.47;2.17;;;;;;;14.59;100.00;95962.88;5016058;28;20026;-82
2023/10/23 04:24:30;;;;;;;10.23;2.43;;;;;;;14.89;100.00;95961.88;5002310;28;20036;-83
2023/10/23 04:26:56;;;;;;;6.43;2.53;;;;;;;14.99;100.00;95957.06;5031753;28;20518;-83
2023/10/23 04:29:21;;;;;;;8.00;2.50;;;;;;;14.82;100.00;95952.06;5007337;28;20018;-83
2023/10/23 04:31:47;;;;;;;10.53;3.70;;;;;;;14.74;100.00;95957.50;4992132;28;20030;-82
2023/10/23 04:34:14;;;;;;;7.60;3.40;;;;;;;15.22;100.00;95949.66;4996526;28;20018;-83
2023/10/23 04:36:40;;;;;;;10.60;4.63;;;;;;;15.28;100.00;95950.72;4997134;28;20052;-83
2023/10/23 04:39:05;;;;;;;12.63;7.80;;;;;;;15.45;100.00;95949.38;5002566;28;20456;-82
2023/10/23 04:41:33;;;;;;;13.93;9.80;;;;;;;14.69;100.00;95962.56;5000635;28;20033;-83
2023/10/23 04:43:58;;;;;;;11.63;8.50;;;;;;;15.08;100.00;95954.06;4994649;28;20018;-84
2023/10/23 04:46:24;;;;;;;11.23;6.40;;;;;;;15.16;100.00;95954.94;5022922;28;20020;-82
2023/10/23 04:48:49;;;;;;;7.67;5.37;;;;;;;15.06;100.00;95944.69;4998572;28;20075;-82
2023/10/23 04:51:15;;;;;;;11.23;5.10;;;;;;;14.92;100.00;95942.97;5012043;28;20033;-82
2023/10/23 04:53:40;;;;;;;11.33;6.30;;;;;;;14.80;100.00;95945.34;5012010;28;20033;-82
2023/10/23 04:56:06;;;;;;;9.73;6.77;;;;;;;15.01;100.00;95947.09;5004378;28;20041;-82
2023/10/23 04:58:34;;;;;;;10.33;6.43;;;;;;;14.70;100.00;95940.38;5006842;28;20034;-81
2023/10/23 05:00:59;;;;;;;11.57;6.63;;;;;;;14.68;100.00;95944.22;4997008;28;20841;-82
2023/10/23 05:03:26;;;;;;;13.17;6.30;;;;;;;14.66;100.00;95935.66;5006182;28;20052;-82
2023/10/23 05:05:52;;;;;;;10.07;5.60;;;;;;;14.74;100.00;95938.97;4995457;28;20488;-82
2023/10/23 05:08:18;;;;;;;8.00;4.93;;;;;;;14.55;100.00;95936.97;4993131;28;20021;-82
2023/10/23 05:10:44;;;;;;;10.83;7.17;;;;;;;14.07;100.00;95950.75;5009383;28;20030;-82
2023/10/23 05:13:09;;;;;;;20.00;13.87;;;;;;;14.10;100.00;95944.28;4985273;28;20049;-83
2023/10/23 05:15:35;;;;;;;18.20;10.93;;;;;;;14.38;100.00;95945.19;5021076;28;20033;-84
2023/10/23 05:18:00;;;;;;;18.83;9.53;;;;;;;14.27;100.00;95943.03;5002320;28;20022;-83
2023/10/23 05:20:26;;;;;;;11.97;7.43;;;;;;;14.66;100.00;95944.41;5023297;28;20074;-82
2023/10/23 05:22:51;;;;;;;16.77;9.03;;;;;;;14.89;100.00;95938.88;5004315;28;20067;-83
2023/10/23 05:25:17;;;;;;;11.67;6.67;;;;;;;14.87;100.00;95934.78;5027175;28;20047;-82
2023/10/23 05:27:43;;;;;;;11.60;6.23;;;;;;;14.67;100.00;95940.75;5009200;28;20129;-83
2023/10/23 05:30:12;;;;;;;10.67;6.43;;;;;;;14.76;100.00;95938.78;5011632;28;20026;-83
2023/10/23 05:32:40;;;;;;;11.87;6.50;;;;;;;14.28;100.00;95944.66;4997842;28;20037;-83
2023/10/23 05:35:22;;;;;;;13.77;7.07;;;;;;;14.47;100.00;95942.38;5010997;28;20083;-83
2023/10/23 05:38:08;;;;;;;13.43;8.43;;;;;;;14.57;100.00;95945.56;5007975;28;20033;-83
2023/10/23 05:40:33;;;;;;;21.27;13.90;;;;;;;14.57;100.00;95937.63;4993204;28;20033;-84
2023/10/23 05:43:03;;;;;;;20.17;16.60;;;;;;;14.45;100.00;95937.28;4992550;28;20057;-83
2023/10/23 05:45:29;;;;;;;15.70;9.87;;;;;;;14.63;100.00;95934.22;4995935;28;20034;-83
2023/10/23 05:47:54;;;;;;;15.57;8.93;;;;;;;14.80;100.00;95932.91;5012686;28;20118;-83
2023/10/23 05:50:20;;;;;;;12.30;6.20;;;;;;;14.94;99.02;95933.00;5008325;28;20022;-83
2023/10/23 05:52:45;;;;;;;30.07;21.23;;;;;;;14.80;100.00;95937.38;5001021;28;20708;-81
2023/10/23 05:55:11;;;;;;;12.57;7.73;;;;;;;14.84;100.00;95938.63;5015884;28;20029;-81
2023/10/23 05:57:37;;;;;;;8.40;4.00;;;;;;;14.87;100.00;95940.09;5009664;28;20030;-81
2023/10/23 06:00:04;;;;;;;9.47;3.93;;;;;;;15.10;100.00;95948.59;5020735;28;20102;-81
2023/10/23 06:02:33;;;;;;;7.43;3.17;;;;;;;14.72;100.00;95954.25;5021385;28;20041;-81
2023/10/23 06:05:04;;;;;;;8.57;2.90;;;;;;;14.82;100.00;95957.38;5007535;28;20510;-81
2023/10/23 06:07:29;;;;;;;7.77;2.40;;;;;;;14.75;100.00;95959.13;4997105;28;20084;-81
2023/10/23 06:09:58;;;;;;;6.03;2.63;;;;;;;14.60;100.00;95961.06;4999031;28;20384;-81
2023/10/23 06:12:23;;;;;;;24.63;10.23;;;;;;;15.37;100.00;95954.03;5011842;28;20029;-83
2023/10/23 06:14:49;;;;;;;12.37;3.03;;;;;;;15.07;100.00;95972.81;4990733;28;20447;-81
2023/10/23 06:17:16;;;;;;;6.30;1.97;;;;;;;15.01;100.00;95969.09;4991343;28;20728;-84
2023/10/23 06:19:41;;;;;;;7.10;2.03;;;;;;;15.01;100.00;95978.88;5011544;28;20028;-84
2023/10/23 06:22:07;;;;;;;12.07;2.87;;;;;;;14.81;100.00;95976.06;4994760;28;20404;-81
2023/10/23 06:24:32;;;;;;;10.07;2.33;;;;;;;14.42;100.00;95973.88;5010564;28;20029;-85
2023/10/23 06:26:58;;;;;;;9.43;2.33;;;;;;;14.87;100.00;95974.50;5008270;28;20026;-84
2023/10/23 06:29:24;;;;;;;6.50;2.67;;;;;;;14.54;100.00;95973.22;4999643;28;20036;-85
2023/10/23 06:31:49;;;;;;;11.70;2.97;;;;;;;14.70;100.00;95977.44;5010324;28;20029;-85
2023/10/23 06:34:15;;;;;;;8.73;2.57;;;;;;;14.22;100.00;95969.22;5002739;28;20499;-85
2023/10/23 06:36:42;;;;;;;6.40;2.70;;;;;;;14.11;100.00;95978.47;5010703;28;20040;-84
2023/10/23 06:39:09;;;;;;;8.10;2.90;;;;;;;14.90;100.00;95977.59;5017358;28;20029;-85
2023/10/23 06:41:34;;;;;;;8.33;3.43;;;;;;;15.08;100.00;95977.91;4995003;28;20068;-84
2023/10/23 06:44:01;;;;;;;10.93;3.50;;;;;;;14.89;100.00;95969.81;5003165;28;20023;-90
2023/10/23 06:46:26;;;;;;;7.30;2.90;;;;;;;15.65;100.00;95973.34;5027006;28;20033;-89
2023/10/23 06:48:53;;;;;;;10.27;3.23;;;;;;;15.55;100.00;95971.03;5002212;28;20554;-84
2023/10/23 06:51:18;;;;;;;12.50;4.10;;;;;;;15.91;100.00;95970.00;4993729;28;20021;-84
2023/10/23 06:53:44;;;;;;;9.90;3.40;;;;;;;15.71;100.00;95963.81;5011630;28;20504;-84
2023/10/23 06:56:11;;;;;;;13.80;3.70;;;;;;;16.36;98.76;95966.84;5010772;28;20033;-84
2023/10/23 06:58:36;;;;;;;9.93;3.10;;;;;;;16.33;98.68;95954.81;5007932;28;20030;-85
2023/10/23 07:01:08;;;;;;;11.23;3.40;;;;;;;16.78;85.36;95948.94;4994292;28;20036;-84
2023/10/23 07:03:37;;;;;;;10.00;3.23;;;;;;;17.09;94.47;95949.09;5005645;28;20030;-84
2023/10/23 07:06:07;;;;;;;8.33;2.90;;;;;;;17.25;94.40;95953.19;4988808;28;20109;-84
2023/10/23 07:08:33;;;;;;;6.27;2.60;;;;;;;17.25;91.44;95950.53;4994525;28;20488;-85
2023/10/23 07:10:59;;;;;;;11.23;3.83;;;;;;;18.43;77.65;95952.88;4994439;28;21290;-84
2023/10/23 07:13:25;;;;;;;8.80;2.87;;;;;;;18.69;78.76;95951.88;4999738;28;20029;-84
2023/10/23 07:15:51;;;;;;;7.53;2.60;;;;;;;19.65;69.88;95947.13;4996844;28;20060;-84
2023/10/23 07:18:19;;;;;;;7.47;2.80;;;;;;;19.62;65.16;95948.38;4994207;28;20071;-84
2023/10/23 07:20:56;;;;;;;6.77;2.57;;;;;;;19.73;65.77;95946.81;4998793;28;20058;-85
2023/10/23 07:23:30;;;;;;;10.37;2.60;;;;;;;20.65;64.93;95943.94;5010807;28;20054;-84
2023/10/23 07:26:08;;;;;;;8.00;2.20;;;;;;;20.45;58.93;95949.56;5003109;28;20030;-84
2023/10/23 07:28:40;;;;;;;6.07;2.37;;;;;;;19.90;63.77;95958.50;5011351;28;20038;-85
2023/10/23 07:31:06;;;;;;;9.10;2.97;;;;;;;19.26;70.43;95947.31;5000874;28;20034;-85
2023/10/23 07:33:36;;;;;;;9.43;2.90;;;;;;;18.78;74.47;95957.81;5000715;28;20044;-85
2023/10/23 07:36:04;;;;;;;12.03;2.87;;;;;;;19.34;73.59;95954.19;4990712;28;20037;-85
2023/10/23 07:38:33;;;;;;;9.67;2.17;;;;;;;19.21;73.50;95955.13;5007628;28;20029;-84
2023/10/23 07:41:00;;;;;;;5.27;2.93;;;;;;;19.41;73.96;95941.59;4997310;28;20160;-85
2023/10/23 07:43:27;;;;;;;12.73;2.60;;;;;;;19.23;75.15;95929.09;4993790;28;20411;-85
2023/10/23 07:45:53;;;;;;;7.43;2.57;;;;;;;18.51;79.77;95923.34;5012177;28;20021;-85
2023/10/23 07:48:22;;;;;;;8.80;2.70;;;;;;;18.87;77.79;95923.69;4993045;28;20026;-85
2023/10/23 07:50:48;;;;;;;8.17;3.33;;;;;;;18.81;76.99;95920.03;5011952;28;20021;-84
2023/10/23 07:53:19;;;;;;;8.60;2.93;;;;;;;19.06;73.29;95915.50;5017052;28;20580;-85
2023/10/23 07:55:47;;;;;;;7.77;2.70;;;;;;;18.71;73.55;95911.69;5007370;28;20026;-84
2023/10/23 07:58:13;;;;;;;6.40;2.40;;;;;;;18.89;77.56;95906.47;5022704;28;20110;-84
2023/10/23 08:00:41;;;;;;;7.87;3.90;;;;;;;19.27;76.96;95900.13;5009684;28;20034;-85
2023/10/23 08:03:07;;;;;;;10.10;6.33;;;;;;;19.52;76.04;95895.53;4998179;28;20057;-84
2023/10/23 08:05:32;;;;;;;10.07;2.70;;;;;;;18.64;82.24;95908.28;5005851;28;20678;-85
2023/10/23 08:07:58;;;;;;;9.30;2.80;;;;;;;18.80;80.26;95908.56;5020899;28;20049;-84
2023/10/23 08:10:26;;;;;;;8.97;2.97;;;;;;;19.51;78.38;95906.41;4993416;28;20476;-87
2023/10/23 08:12:51;;;;;;;6.67;2.70;;;;;;;19.42;73.41;95903.25;4991361;28;20021;-84
2023/10/23 08:15:17;;;;;;;8.63;2.47;;;;;;;19.97;72.74;95905.88;4991687;28;20033;-86
2023/10/23 08:17:43;;;;;;;7.47;2.80;;;;;;;20.63;68.14;95905.97;5011328;28;20802;-86
2023/10/23 08:20:09;;;;;;;5.87;2.47;;;;;;;19.47;81.97;95900.72;5008554;28;20022;-85
2023/10/23 08:22:34;;;;;;;7.43;2.63;;;;;;;21.00;70.95;95892.41;4988682;28;20030;-85
2023/10/23 08:25:04;;;;;;;8.13;2.57;;;;;;;20.09;74.93;95891.75;4990687;28;20080;-85
2023/10/23 08:27:30;;;;;;;7.00;2.97;;;;;;;20.48;74.83;95887.66;4991537;28;20060;-84
2023/10/23 08:29:56;;;;;;;9.50;4.10;;;;;;;20.89;73.70;95883.31;4998799;28;20026;-84
2023/10/23 08:32:22;;;;;;;6.00;2.30;;;;;;;20.49;74.46;95881.28;5003540;28;20033;-85
2023/10/23 08:34:47;;;;;;;8.23;3.43;;;;;;;20.77;78.14;95872.63;4993669;28;20435;-85
2023/10/23 08:37:16;;;;;;;6.37;2.70;;;;;;;20.02;82.54;95875.84;4993824;28;20108;-84
2023/10/23 08:39:42;;;;;;;8.97;2.33;;;;;;;20.24;82.62;95878.78;5004840;28;20146;-84
2023/10/23 08:42:09;;;;;;;5.90;2.70;;;;;;;19.51;86.04;95877.88;5011855;28;20026;-84
2023/10/23 08:44:35;;;;;;;6.67;2.73;;;;;;;20.32;81.01;95881.16;5014783;28;20030;-84
2023/10/23 08:47:02;;;;;;;7.87;2.83;;;;;;;21.18;77.06;95895.72;5005740;28;20527;-85
2023/10/23 08:49:28;;;;;;;6.53;2.50;;;;;;;20.99;74.84;95901.44;5004723;28;20018;-84
2023/10/23 08:51:57;;;;;;;14.80;3.73;;;;;;;20.64;77.77;95896.91;5001570;28;20023;-84
2023/10/23 08:54:27;;;;;;;5.27;2.07;;;;;;;20.48;76.74;95896.47;5022718;28;20037;-85
2023/10/23 08:56:59;;;;;;;4.90;1.80;;;;;;;20.57;75.18;95889.00;5037304;28;20037;-84
2023/10/23 08:59:25;;;;;;;6.70;2.23;;;;;;;21.37;72.45;95883.06;5013346;28;20053;-85
2023/10/23 09:01:50;;;;;;;4.00;2.00;;;;;;;21.85;72.78;95884.56;5004662;28;20029;-85
2023/10/23 09:04:16;;;;;;;10.13;2.87;;;;;;;21.85;74.94;95883.75;5010871;28;20584;-85
2023/10/23 09:06:45;;;;;;;6.50;2.90;;;;;;;21.35;76.28;95885.16;5006244;28;20117;-84
2023/10/23 09:09:11;;;;;;;6.00;2.70;;;;;;;21.25;80.20;95874.22;5010938;28;20021;-83
2023/10/23 09:11:48;;;;;;;5.93;2.80;;;;;;;21.28;78.77;95868.41;4998362;28;21610;-85
2023/10/23 09:14:28;;;;;;;8.13;2.90;;;;;;;21.50;74.42;95868.63;5001771;28;20110;-83
2023/10/23 09:16:55;;;;;;;7.37;2.90;;;;;;;20.91;85.21;95873.22;5014280;28;20403;-85
2023/10/23 09:19:27;;;;;;;5.50;2.30;;;;;;;20.56;83.00;95881.22;4999861;28;20029;-92
2023/10/23 09:21:57;;;;;;;8.53;3.03;;;;;;;20.99;81.52;95875.50;5002757;28;20427;-87
2023/10/23 09:24:26;;;;;;;5.50;2.17;;;;;;;20.85;82.30;95874.94;5003396;28;20084;-86
2023/10/23 09:26:52;;;;;;;7.13;2.40;;;;;;;20.66;85.86;95884.13;5004831;28;20061;-84
2023/10/23 09:29:40;;;;;;;6.80;2.80;;;;;;;21.52;81.80;95863.84;5000594;28;20306;-83
2023/10/23 09:32:19;;;;;;;6.67;2.10;;;;;;;21.61;79.36;95867.75;5009898;28;20075;-84
2023/10/23 09:34:59;;;;;;;8.38;2.75;;;;;;;21.93;76.59;95869.16;5016495;28;20034;-84
2023/10/23 09:37:40;;;;;;;;;;;;;;;;;;;;;
2023/10/23 09:40:27;;;;;;;;;;;;;;;;;;;;;
2023/10/23 09:43:27;;;;;;;;;;;;;;;;;;;;;
2023/10/23 09:46:08;;;;;;;6.90;2.77;;;;;;;22.58;76.63;95866.03;5005188;28;20032;-84
2023/10/23 09:48:34;;;;;;;3.77;2.30;;;;;;;21.80;79.25;95876.44;4993249;28;20093;-85
2023/10/23 09:51:02;;;;;;;6.63;3.23;;;;;;;22.63;75.48;95859.94;5003278;28;20700;-83
2023/10/23 09:53:28;;;;;;;6.33;3.00;;;;;;;22.76;72.10;95857.72;4994235;28;20033;-83
2023/10/23 09:55:55;;;;;;;5.07;2.53;;;;;;;22.08;71.79;95856.06;4993362;28;20034;-83
2023/10/23 09:58:23;;;;;;;6.53;2.23;;;;;;;22.00;74.58;95854.59;5010962;28;20030;-83
2023/10/23 10:00:51;;;;;;;6.63;2.93;;;;;;;22.38;74.28;95853.13;5001073;28;20026;-82
2023/10/23 10:03:18;;;;;;;9.03;3.20;;;;;;;21.72;75.78;95842.00;5024081;28;20381;-84
2023/10/23 10:06:02;;;;;;;4.80;1.97;;;;;;;22.50;73.48;95859.22;5039729;28;20094;-85
2023/10/23 10:08:37;;;;;;;7.47;2.40;;;;;;;22.99;68.93;95853.28;4996920;28;20033;-84
2023/10/23 10:11:05;;;;;;;5.30;1.90;;;;;;;22.15;66.83;95856.75;5012773;28;20388;-83
2023/10/23 10:13:31;;;;;;;4.47;1.50;;;;;;;22.44;67.33;95857.50;4993246;28;20116;-83
2023/10/23 10:15:59;;;;;;;4.27;1.67;;;;;;;21.96;67.54;95852.63;5014515;28;20107;-83
2023/10/23 10:18:25;;;;;;;4.57;1.40;;;;;;;21.60;67.83;95855.44;4993322;28;20034;-83
2023/10/23 10:20:57;;;;;;;2.80;0.97;;;;;;;21.18;70.29;95857.50;5009960;28;20021;-83
2023/10/23 10:23:25;;;;;;;3.00;1.40;;;;;;;21.41;67.20;95856.66;4993035;28;20496;-82
2023/10/23 10:25:51;;;;;;;3.73;1.30;;;;;;;21.27;71.51;95864.09;4995415;28;20486;-83
2023/10/23 10:28:17;;;;;;;3.90;1.00;;;;;;;20.83;70.06;95866.34;5017518;28;20040;-84
2023/10/23 10:30:46;;;;;;;2.80;1.37;;;;;;;21.79;66.07;95864.09;4998615;28;20034;-84
2023/10/23 10:33:29;;;;;;;3.80;1.13;;;;;;;22.04;66.17;95854.91;5005588;28;20034;-83
2023/10/23 10:35:58;;;;;;;2.03;1.03;;;;;;;22.09;63.31;95857.69;5012502;28;20025;-84
2023/10/23 10:38:33;;;;;;;3.93;2.13;;;;;;;22.04;65.20;95853.06;5000712;28;20471;-82
2023/10/23 10:41:03;;;;;;;4.33;1.50;;;;;;;21.87;66.17;95844.19;5008466;28;20032;-83
2023/10/23 10:43:34;;;;;;;3.90;1.30;;;;;;;21.57;67.21;95844.41;5004156;28;20440;-86
2023/10/23 10:46:04;;;;;;;4.23;1.40;;;;;;;22.24;62.81;95843.78;5025212;28;20022;-83
2023/10/23 10:48:49;;;;;;;2.97;1.33;;;;;;;22.40;63.15;95837.63;4994721;28;20132;-83
2023/10/23 10:51:27;;;;;;;5.93;1.70;;;;;;;21.95;67.10;95832.25;4992646;28;20058;-84
2023/10/23 10:54:03;;;;;;;4.40;1.40;;;;;;;22.31;67.57;95826.50;4987209;28;20113;-83
2023/10/23 10:56:30;;;;;;;7.97;1.60;;;;;;;21.21;70.25;95827.59;4995569;28;20026;-84
2023/10/23 10:59:04;;;;;;;4.10;1.70;;;;;;;21.13;69.18;95825.31;5008540;28;20033;-84
2023/10/23 11:01:31;;;;;;;5.60;1.90;;;;;;;21.05;73.22;95820.31;4980258;28;20040;-83
2023/10/23 11:03:59;;;;;;;5.97;1.83;;;;;;;21.42;73.52;95805.59;4995467;28;20439;-84
2023/10/23 11:06:25;;;;;;;6.60;1.57;;;;;;;22.24;66.17;95809.78;5008873;28;20029;-84
2023/10/23 11:08:51;;;;;;;5.80;1.60;;;;;;;21.42;71.57;95810.94;5008537;28;20033;-85
2023/10/23 11:11:17;;;;;;;5.40;2.00;;;;;;;21.57;70.38;95796.25;5006905;28;20030;-83
2023/10/23 11:13:43;;;;;;;3.37;1.30;;;;;;;22.28;65.37;95791.34;5008121;28;20026;-84
2023/10/23 11:16:19;;;;;;;4.47;1.43;;;;;;;21.87;68.25;95791.44;5008538;28;20029;-84
2023/10/23 11:18:44;;;;;;;3.67;1.50;;;;;;;21.93;68.62;95784.31;4989628;28;20030;-84
2023/10/23 11:21:10;;;;;;;4.23;1.43;;;;;;;22.19;65.47;95772.19;4996431;28;20076;-84
2023/10/23 11:23:36;;;;;;;6.37;1.57;;;;;;;22.65;63.21;95764.03;5009938;28;20030;-84
2023/10/23 11:26:02;;;;;;;4.97;2.23;;;;;;;22.74;62.48;95752.63;4991827;28;20018;-84
2023/10/23 11:28:30;;;;;;;17.87;11.43;;;;;;;22.29;64.42;95750.91;5009166;28;20496;-83
2023/10/23 11:30:58;;;;;;;23.37;17.40;;;;;;;22.19;63.09;95755.31;5005307;28;20022;-83
2023/10/23 11:33:23;;;;;;;15.10;8.90;;;;;;;22.58;62.35;95748.13;4999905;28;20049;-84